sensor_id;sensor_type;location;lat;lon;timestamp;temperature;humidity
3778;DHT22;1904;50.076;8.660;2023-02-26T00:01:23;0.40;1.00
3778;DHT22;1904;50.076;8.660;2023-02-26T00:10:56;0.60;1.00
3778;DHT22;1904;50.076;8.660;2023-02-26T00:13:33;0.50;1.00
3778;DHT22;1904;50.076;8.660;2023-02-26T00:16:30;0.50;1.00
3778;DHT22;1904;50.076;8.660;2023-02-26T00:18:58;0.50;1.00
3778;DHT22;1904;50.076;8.660;2023-02-26T00:21:34;0.50;1.00
3778;DHT22;1904;50.076;8.660;2023-02-26T00:27:21;0.50;1.00
3778;DHT22;1904;50.076;8.660;2023-02-26T00:33:08;0.50;1.00
3778;DHT22;1904;50.076;8.660;2023-02-26T00:36:04;0.50;1.00
3778;DHT22;1904;50.076;8.660;2023-02-26T00:42:03;0.40;1.00
3778;DHT22;1904;50.076;8.660;2023-02-26T00:44:33;0.40;1.00
3778;DHT22;1904;50.076;8.660;2023-02-26T00:50:16;0.40;1.00
3778;DHT22;1904;50.076;8.660;2023-02-26T00:53:11;0.50;1.00
3778;DHT22;1904;50.076;8.660;2023-02-26T00:55:38;0.60;1.00
3778;DHT22;1904;50.076;8.660;2023-02-26T00:58:04;0.60;1.00
3778;DHT22;1904;50.076;8.660;2023-02-26T01:00:30;0.70;1.00
3778;DHT22;1904;50.076;8.660;2023-02-26T01:02:56;0.80;1.00
3778;DHT22;1904;50.076;8.660;2023-02-26T01:05:27;0.80;1.00
3778;DHT22;1904;50.076;8.660;2023-02-26T01:08:13;0.90;1.00
3778;DHT22;1904;50.076;8.660;2023-02-26T01:17:46;1.20;1.00
3778;DHT22;1904;50.076;8.660;2023-02-26T01:20:23;1.30;1.00
3778;DHT22;1904;50.076;8.660;2023-02-26T01:23:10;1.40;1.00
3778;DHT22;1904;50.076;8.660;2023-02-26T01:26:03;1.40;1.00
3778;DHT22;1904;50.076;8.660;2023-02-26T01:28:44;1.50;1.00
3778;DHT22;1904;50.076;8.660;2023-02-26T01:34:02;1.60;1.00
3778;DHT22;1904;50.076;8.660;2023-02-26T01:39:46;1.60;1.00
3778;DHT22;1904;50.076;8.660;2023-02-26T01:42:17;1.70;1.00
3778;DHT22;1904;50.076;8.660;2023-02-26T01:44:58;1.70;1.00
3778;DHT22;1904;50.076;8.660;2023-02-26T01:47:40;1.70;1.00
3778;DHT22;1904;50.076;8.660;2023-02-26T01:50:16;1.80;1.00
3778;DHT22;1904;50.076;8.660;2023-02-26T01:55:38;1.70;1.00
3778;DHT22;1904;50.076;8.660;2023-02-26T01:58:38;1.60;1.00
3778;DHT22;1904;50.076;8.660;2023-02-26T02:07:48;1.40;1.00
3778;DHT22;1904;50.076;8.660;2023-02-26T02:10:20;1.30;1.00
3778;DHT22;1904;50.076;8.660;2023-02-26T02:15:41;1.20;1.00
3778;DHT22;1904;50.076;8.660;2023-02-26T02:18:29;1.30;1.00
3778;DHT22;1904;50.076;8.660;2023-02-26T02:24:11;1.40;1.00
3778;DHT22;1904;50.076;8.660;2023-02-26T02:33:48;1.60;1.00
3778;DHT22;1904;50.076;8.660;2023-02-26T02:40:00;1.60;1.00
3778;DHT22;1904;50.076;8.660;2023-02-26T02:42:45;1.50;1.00
3778;DHT22;1904;50.076;8.660;2023-02-26T02:45:42;1.60;1.00
3778;DHT22;1904;50.076;8.660;2023-02-26T02:48:37;1.50;1.00
3778;DHT22;1904;50.076;8.660;2023-02-26T02:51:25;1.50;1.00
3778;DHT22;1904;50.076;8.660;2023-02-26T02:54:34;1.40;1.00
3778;DHT22;1904;50.076;8.660;2023-02-26T02:57:24;1.40;1.00
3778;DHT22;1904;50.076;8.660;2023-02-26T03:00:10;1.30;1.00
3778;DHT22;1904;50.076;8.660;2023-02-26T03:02:53;1.30;1.00
3778;DHT22;1904;50.076;8.660;2023-02-26T03:05:26;1.10;1.00
3778;DHT22;1904;50.076;8.660;2023-02-26T03:08:06;1.10;1.00
3778;DHT22;1904;50.076;8.660;2023-02-26T03:10:50;1.00;1.00
3778;DHT22;1904;50.076;8.660;2023-02-26T03:19:41;0.70;1.00
3778;DHT22;1904;50.076;8.660;2023-02-26T03:32:28;0.40;1.00
3778;DHT22;1904;50.076;8.660;2023-02-26T03:47:48;0.30;1.00
3778;DHT22;1904;50.076;8.660;2023-02-26T03:50:24;0.20;1.00
3778;DHT22;1904;50.076;8.660;2023-02-26T03:59:33;0.20;1.00
3778;DHT22;1904;50.076;8.660;2023-02-26T04:05:27;0.10;1.00
3778;DHT22;1904;50.076;8.660;2023-02-26T04:08:03;0.10;1.00
3778;DHT22;1904;50.076;8.660;2023-02-26T04:13:45;0.10;1.00
3778;DHT22;1904;50.076;8.660;2023-02-26T04:16:27;0.10;1.00
3778;DHT22;1904;50.076;8.660;2023-02-26T04:18:56;0.10;1.00
3778;DHT22;1904;50.076;8.660;2023-02-26T04:21:27;0.10;1.00
3778;DHT22;1904;50.076;8.660;2023-02-26T04:23:52;0.10;1.00
3778;DHT22;1904;50.076;8.660;2023-02-26T04:26:18;0.10;1.00
3778;DHT22;1904;50.076;8.660;2023-02-26T04:28:45;0.10;1.00
3778;DHT22;1904;50.076;8.660;2023-02-26T04:31:20;0.10;1.00
3778;DHT22;1904;50.076;8.660;2023-02-26T04:33:46;0.10;1.00
3778;DHT22;1904;50.076;8.660;2023-02-26T04:36:27;0.10;1.00
3778;DHT22;1904;50.076;8.660;2023-02-26T04:39:14;0.00;1.00
3778;DHT22;1904;50.076;8.660;2023-02-26T04:41:56;0.10;1.00
3778;DHT22;1904;50.076;8.660;2023-02-26T04:47:44;0.10;1.00
3778;DHT22;1904;50.076;8.660;2023-02-26T04:50:10;0.00;1.00
3778;DHT22;1904;50.076;8.660;2023-02-26T04:55:58;0.00;1.00
3778;DHT22;1904;50.076;8.660;2023-02-26T04:58:27;-0.10;1.00
3778;DHT22;1904;50.076;8.660;2023-02-26T05:00:52;-0.10;1.00
3778;DHT22;1904;50.076;8.660;2023-02-26T05:03:50;-0.10;1.00
3778;DHT22;1904;50.076;8.660;2023-02-26T05:06:27;-0.20;1.00
3778;DHT22;1904;50.076;8.660;2023-02-26T05:09:14;-0.20;1.00
3778;DHT22;1904;50.076;8.660;2023-02-26T05:12:02;-0.20;1.00
3778;DHT22;1904;50.076;8.660;2023-02-26T05:17:50;-0.10;1.00
3778;DHT22;1904;50.076;8.660;2023-02-26T05:23:37;-0.20;1.00
3778;DHT22;1904;50.076;8.660;2023-02-26T05:26:03;-0.20;1.00
3778;DHT22;1904;50.076;8.660;2023-02-26T05:28:30;-0.30;1.00
3778;DHT22;1904;50.076;8.660;2023-02-26T05:31:08;-0.20;1.00
3778;DHT22;1904;50.076;8.660;2023-02-26T05:33:45;-0.20;1.00
3778;DHT22;1904;50.076;8.660;2023-02-26T05:36:26;-0.10;1.00
3778;DHT22;1904;50.076;8.660;2023-02-26T05:39:09;-0.10;1.00
3778;DHT22;1904;50.076;8.660;2023-02-26T05:48:13;-0.10;1.00
3778;DHT22;1904;50.076;8.660;2023-02-26T05:51:14;-0.10;1.00
3778;DHT22;1904;50.076;8.660;2023-02-26T05:54:09;-0.10;1.00
3778;DHT22;1904;50.076;8.660;2023-02-26T05:56:39;-0.10;1.00
3778;DHT22;1904;50.076;8.660;2023-02-26T05:59:15;-0.10;1.00
3778;DHT22;1904;50.076;8.660;2023-02-26T06:01:41;0.00;1.00
3778;DHT22;1904;50.076;8.660;2023-02-26T06:04:15;0.00;1.00
3778;DHT22;1904;50.076;8.660;2023-02-26T06:06:40;0.00;1.00
3778;DHT22;1904;50.076;8.660;2023-02-26T06:09:20;0.20;1.00
3778;DHT22;1904;50.076;8.660;2023-02-26T06:12:08;0.10;1.00
3778;DHT22;1904;50.076;8.660;2023-02-26T06:14:34;0.10;1.00
3778;DHT22;1904;50.076;8.660;2023-02-26T06:17:04;0.20;1.00
3778;DHT22;1904;50.076;8.660;2023-02-26T06:19:44;0.20;1.00
3778;DHT22;1904;50.076;8.660;2023-02-26T06:22:10;0.10;1.00
3778;DHT22;1904;50.076;8.660;2023-02-26T06:24:36;0.10;1.00
3778;DHT22;1904;50.076;8.660;2023-02-26T06:27:26;0.10;1.00
3778;DHT22;1904;50.076;8.660;2023-02-26T06:30:04;0.10;1.00
3778;DHT22;1904;50.076;8.660;2023-02-26T06:32:33;0.10;1.00
3778;DHT22;1904;50.076;8.660;2023-02-26T06:35:03;0.00;1.00
3778;DHT22;1904;50.076;8.660;2023-02-26T06:37:33;0.10;1.00
3778;DHT22;1904;50.076;8.660;2023-02-26T06:40:03;0.10;1.00
3778;DHT22;1904;50.076;8.660;2023-02-26T06:42:33;0.10;1.00
3778;DHT22;1904;50.076;8.660;2023-02-26T06:45:03;0.10;1.00
3778;DHT22;1904;50.076;8.660;2023-02-26T06:47:33;0.20;1.00
3778;DHT22;1904;50.076;8.660;2023-02-26T06:49:58;0.10;1.00
3778;DHT22;1904;50.076;8.660;2023-02-26T06:52:24;0.20;1.00
3778;DHT22;1904;50.076;8.660;2023-02-26T06:55:03;0.20;1.00
3778;DHT22;1904;50.076;8.660;2023-02-26T06:57:33;0.20;1.00
3778;DHT22;1904;50.076;8.660;2023-02-26T07:00:32;0.20;1.00
3778;DHT22;1904;50.076;8.660;2023-02-26T07:03:03;0.20;1.00
3778;DHT22;1904;50.076;8.660;2023-02-26T07:05:33;0.20;1.00
3778;DHT22;1904;50.076;8.660;2023-02-26T07:08:03;0.20;1.00
3778;DHT22;1904;50.076;8.660;2023-02-26T07:10:56;0.20;1.00
3778;DHT22;1904;50.076;8.660;2023-02-26T07:13:22;0.20;1.00
3778;DHT22;1904;50.076;8.660;2023-02-26T07:15:48;0.30;1.00
3778;DHT22;1904;50.076;8.660;2023-02-26T07:18:15;0.40;1.00
3778;DHT22;1904;50.076;8.660;2023-02-26T07:20:48;0.50;1.00
3778;DHT22;1904;50.076;8.660;2023-02-26T07:23:15;0.50;1.00
3778;DHT22;1904;50.076;8.660;2023-02-26T07:25:41;0.50;1.00
3778;DHT22;1904;50.076;8.660;2023-02-26T07:28:09;0.60;1.00
3778;DHT22;1904;50.076;8.660;2023-02-26T07:30:35;0.70;1.00
3778;DHT22;1904;50.076;8.660;2023-02-26T07:33:00;0.80;1.00
3778;DHT22;1904;50.076;8.660;2023-02-26T07:35:27;0.90;1.00
3778;DHT22;1904;50.076;8.660;2023-02-26T07:37:52;1.00;1.00
3778;DHT22;1904;50.076;8.660;2023-02-26T07:40:18;1.10;1.00
3778;DHT22;1904;50.076;8.660;2023-02-26T07:42:45;1.20;1.00
3778;DHT22;1904;50.076;8.660;2023-02-26T07:45:15;1.30;1.00
3778;DHT22;1904;50.076;8.660;2023-02-26T07:47:51;1.50;1.00
3778;DHT22;1904;50.076;8.660;2023-02-26T07:50:18;1.70;1.00
3778;DHT22;1904;50.076;8.660;2023-02-26T07:53:02;1.80;1.00
3778;DHT22;1904;50.076;8.660;2023-02-26T07:55:33;1.90;1.00
3778;DHT22;1904;50.076;8.660;2023-02-26T07:57:58;1.90;1.00
3778;DHT22;1904;50.076;8.660;2023-02-26T08:00:24;1.90;1.00
3778;DHT22;1904;50.076;8.660;2023-02-26T08:02:57;2.00;1.00
3778;DHT22;1904;50.076;8.660;2023-02-26T08:05:27;2.00;1.00
3778;DHT22;1904;50.076;8.660;2023-02-26T08:07:52;1.90;1.00
3778;DHT22;1904;50.076;8.660;2023-02-26T08:10:18;1.80;1.00
3778;DHT22;1904;50.076;8.660;2023-02-26T08:12:44;1.80;1.00
3778;DHT22;1904;50.076;8.660;2023-02-26T08:15:15;1.80;1.00
3778;DHT22;1904;50.076;8.660;2023-02-26T08:17:52;1.70;1.00
3778;DHT22;1904;50.076;8.660;2023-02-26T08:20:18;1.70;1.00
3778;DHT22;1904;50.076;8.660;2023-02-26T08:22:44;1.70;1.00
3778;DHT22;1904;50.076;8.660;2023-02-26T08:25:09;1.80;1.00
3778;DHT22;1904;50.076;8.660;2023-02-26T08:27:35;1.80;1.00
3778;DHT22;1904;50.076;8.660;2023-02-26T08:30:03;1.80;1.00
3778;DHT22;1904;50.076;8.660;2023-02-26T08:32:56;1.90;1.00
3778;DHT22;1904;50.076;8.660;2023-02-26T08:35:27;1.90;1.00
3778;DHT22;1904;50.076;8.660;2023-02-26T08:37:52;2.10;1.00
3778;DHT22;1904;50.076;8.660;2023-02-26T08:40:21;2.20;1.00
3778;DHT22;1904;50.076;8.660;2023-02-26T08:42:49;2.20;1.00
3778;DHT22;1904;50.076;8.660;2023-02-26T08:45:15;2.20;1.00
3778;DHT22;1904;50.076;8.660;2023-02-26T08:47:45;2.20;1.00
3778;DHT22;1904;50.076;8.660;2023-02-26T08:50:11;2.20;1.00
3778;DHT22;1904;50.076;8.660;2023-02-26T08:52:37;2.30;1.00
3778;DHT22;1904;50.076;8.660;2023-02-26T08:55:03;2.30;1.00
3778;DHT22;1904;50.076;8.660;2023-02-26T09:00:52;2.30;1.00
3778;DHT22;1904;50.076;8.660;2023-02-26T09:06:39;2.30;1.00
3778;DHT22;1904;50.076;8.660;2023-02-26T09:12:27;2.50;1.00
3778;DHT22;1904;50.076;8.660;2023-02-26T09:15:08;2.50;1.00
3778;DHT22;1904;50.076;8.660;2023-02-26T09:17:34;2.60;1.00
3778;DHT22;1904;50.076;8.660;2023-02-26T09:20:03;2.70;1.00
3778;DHT22;1904;50.076;8.660;2023-02-26T09:22:29;2.90;1.00
3778;DHT22;1904;50.076;8.660;2023-02-26T09:24:55;3.00;1.00
3778;DHT22;1904;50.076;8.660;2023-02-26T09:27:39;3.10;1.00
3778;DHT22;1904;50.076;8.660;2023-02-26T09:30:17;3.20;1.00
3778;DHT22;1904;50.076;8.660;2023-02-26T09:32:57;3.20;1.00
3778;DHT22;1904;50.076;8.660;2023-02-26T09:35:33;3.20;1.00
3778;DHT22;1904;50.076;8.660;2023-02-26T09:38:20;3.20;1.00
3778;DHT22;1904;50.076;8.660;2023-02-26T09:41:13;3.20;1.00
3778;DHT22;1904;50.076;8.660;2023-02-26T09:50:03;3.20;1.00
3778;DHT22;1904;50.076;8.660;2023-02-26T09:55:56;3.00;1.00
3778;DHT22;1904;50.076;8.660;2023-02-26T09:58:50;3.20;1.00
3778;DHT22;1904;50.076;8.660;2023-02-26T10:15:05;4.20;1.00
3778;DHT22;1904;50.076;8.660;2023-02-26T10:21:06;4.20;1.00
3778;DHT22;1904;50.076;8.660;2023-02-26T10:27:15;4.20;1.00
3778;DHT22;1904;50.076;8.660;2023-02-26T10:29:59;3.90;1.00
3778;DHT22;1904;50.076;8.660;2023-02-26T10:39:25;3.70;1.00
3778;DHT22;1904;50.076;8.660;2023-02-26T10:42:22;3.80;1.00
3778;DHT22;1904;50.076;8.660;2023-02-26T10:58:08;5.00;1.00
3778;DHT22;1904;50.076;8.660;2023-02-26T11:06:59;5.40;1.00
3778;DHT22;1904;50.076;8.660;2023-02-26T11:12:45;5.70;1.00
3778;DHT22;1904;50.076;8.660;2023-02-26T11:15:17;5.70;1.00
3778;DHT22;1904;50.076;8.660;2023-02-26T11:17:45;5.60;1.00
3778;DHT22;1904;50.076;8.660;2023-02-26T11:30:18;5.60;1.00
3778;DHT22;1904;50.076;8.660;2023-02-26T11:32:52;5.50;1.00
3778;DHT22;1904;50.076;8.660;2023-02-26T11:35:24;5.40;1.00
3778;DHT22;1904;50.076;8.660;2023-02-26T11:38:17;5.40;1.00
3778;DHT22;1904;50.076;8.660;2023-02-26T11:41:03;5.60;1.00
3778;DHT22;1904;50.076;8.660;2023-02-26T11:43:42;5.70;1.00
3778;DHT22;1904;50.076;8.660;2023-02-26T11:46:09;5.60;1.00
3778;DHT22;1904;50.076;8.660;2023-02-26T11:48:57;5.60;1.00
3778;DHT22;1904;50.076;8.660;2023-02-26T11:51:33;5.60;1.00
3778;DHT22;1904;50.076;8.660;2023-02-26T11:53:59;5.50;1.00
3778;DHT22;1904;50.076;8.660;2023-02-26T11:56:37;5.70;1.00
3778;DHT22;1904;50.076;8.660;2023-02-26T12:02:31;5.90;1.00
3778;DHT22;1904;50.076;8.660;2023-02-26T12:05:13;6.10;1.00
3778;DHT22;1904;50.076;8.660;2023-02-26T12:17:27;6.00;1.00
3778;DHT22;1904;50.076;8.660;2023-02-26T12:23:35;6.00;1.00
3778;DHT22;1904;50.076;8.660;2023-02-26T12:47:27;5.80;1.00
3778;DHT22;1904;50.076;8.660;2023-02-26T13:08:17;6.30;1.00
3778;DHT22;1904;50.076;8.660;2023-02-26T13:13:54;6.10;1.00
3778;DHT22;1904;50.076;8.660;2023-02-26T13:17:02;6.20;1.00
3778;DHT22;1904;50.076;8.660;2023-02-26T13:23:16;6.20;1.00
3778;DHT22;1904;50.076;8.660;2023-02-26T13:35:36;6.50;1.00
3778;DHT22;1904;50.076;8.660;2023-02-26T13:41:15;6.80;1.00
3778;DHT22;1904;50.076;8.660;2023-02-26T13:43:58;6.70;1.00
3778;DHT22;1904;50.076;8.660;2023-02-26T13:53:01;6.10;1.00
3778;DHT22;1904;50.076;8.660;2023-02-26T13:55:42;6.00;1.00
3778;DHT22;1904;50.076;8.660;2023-02-26T14:01:46;6.00;1.00
3778;DHT22;1904;50.076;8.660;2023-02-26T14:04:48;5.80;1.00
3778;DHT22;1904;50.076;8.660;2023-02-26T14:07:15;5.70;1.00
3778;DHT22;1904;50.076;8.660;2023-02-26T14:10:16;5.70;1.00
3778;DHT22;1904;50.076;8.660;2023-02-26T14:19:36;5.10;1.00
3778;DHT22;1904;50.076;8.660;2023-02-26T14:22:21;5.10;1.00
3778;DHT22;1904;50.076;8.660;2023-02-26T14:24:57;5.20;1.00
3778;DHT22;1904;50.076;8.660;2023-02-26T14:36:51;5.70;1.00
3778;DHT22;1904;50.076;8.660;2023-02-26T14:39:49;5.70;1.00
3778;DHT22;1904;50.076;8.660;2023-02-26T14:42:34;5.80;1.00
3778;DHT22;1904;50.076;8.660;2023-02-26T15:19:44;5.80;1.00
3778;DHT22;1904;50.076;8.660;2023-02-26T15:28:23;5.60;1.00
3778;DHT22;1904;50.076;8.660;2023-02-26T15:30:52;5.50;1.00
3778;DHT22;1904;50.076;8.660;2023-02-26T15:33:48;5.40;1.00
3778;DHT22;1904;50.076;8.660;2023-02-26T15:36:42;5.40;1.00
3778;DHT22;1904;50.076;8.660;2023-02-26T15:42:33;5.40;1.00
3778;DHT22;1904;50.076;8.660;2023-02-26T15:51:45;5.20;1.00
3778;DHT22;1904;50.076;8.660;2023-02-26T15:54:42;5.10;1.00
3778;DHT22;1904;50.076;8.660;2023-02-26T16:00:33;4.90;1.00
3778;DHT22;1904;50.076;8.660;2023-02-26T16:03:15;4.70;1.00
3778;DHT22;1904;50.076;8.660;2023-02-26T16:05:41;4.50;1.00
3778;DHT22;1904;50.076;8.660;2023-02-26T16:08:13;4.40;1.00
3778;DHT22;1904;50.076;8.660;2023-02-26T16:10:53;4.40;1.00
3778;DHT22;1904;50.076;8.660;2023-02-26T16:13:32;4.70;1.00
3778;DHT22;1904;50.076;8.660;2023-02-26T16:16:01;4.80;1.00
3778;DHT22;1904;50.076;8.660;2023-02-26T16:18:30;4.80;1.00
3778;DHT22;1904;50.076;8.660;2023-02-26T16:20:59;4.80;1.00
3778;DHT22;1904;50.076;8.660;2023-02-26T16:23:48;4.80;1.00
3778;DHT22;1904;50.076;8.660;2023-02-26T16:26:25;4.70;1.00
3778;DHT22;1904;50.076;8.660;2023-02-26T16:28:58;4.70;1.00
3778;DHT22;1904;50.076;8.660;2023-02-26T16:31:25;4.60;1.00
3778;DHT22;1904;50.076;8.660;2023-02-26T16:33:58;4.60;1.00
3778;DHT22;1904;50.076;8.660;2023-02-26T16:36:28;4.50;1.00
3778;DHT22;1904;50.076;8.660;2023-02-26T16:39:10;4.20;1.00
3778;DHT22;1904;50.076;8.660;2023-02-26T16:41:47;4.20;1.00
3778;DHT22;1904;50.076;8.660;2023-02-26T16:44:43;4.00;1.00
3778;DHT22;1904;50.076;8.660;2023-02-26T16:47:15;3.90;1.00
3778;DHT22;1904;50.076;8.660;2023-02-26T16:49:42;3.80;1.00
3778;DHT22;1904;50.076;8.660;2023-02-26T16:52:22;3.70;1.00
3778;DHT22;1904;50.076;8.660;2023-02-26T16:55:28;3.60;1.00
3778;DHT22;1904;50.076;8.660;2023-02-26T16:58:05;3.40;1.00
3778;DHT22;1904;50.076;8.660;2023-02-26T17:00:54;3.30;1.00
3778;DHT22;1904;50.076;8.660;2023-02-26T17:03:39;3.20;1.00
3778;DHT22;1904;50.076;8.660;2023-02-26T17:06:12;3.10;1.00
3778;DHT22;1904;50.076;8.660;2023-02-26T17:08:57;3.00;1.00
3778;DHT22;1904;50.076;8.660;2023-02-26T17:11:36;3.00;1.00
3778;DHT22;1904;50.076;8.660;2023-02-26T17:14:20;3.00;1.00
3778;DHT22;1904;50.076;8.660;2023-02-26T17:16:48;3.00;1.00
3778;DHT22;1904;50.076;8.660;2023-02-26T17:19:21;2.90;1.00
3778;DHT22;1904;50.076;8.660;2023-02-26T17:21:53;2.90;1.00
3778;DHT22;1904;50.076;8.660;2023-02-26T17:24:32;3.00;1.00
3778;DHT22;1904;50.076;8.660;2023-02-26T17:27:04;3.00;1.00
3778;DHT22;1904;50.076;8.660;2023-02-26T17:29:36;3.10;1.00
3778;DHT22;1904;50.076;8.660;2023-02-26T17:32:39;3.10;1.00
3778;DHT22;1904;50.076;8.660;2023-02-26T17:35:21;3.20;1.00
3778;DHT22;1904;50.076;8.660;2023-02-26T17:37:51;3.10;1.00
3778;DHT22;1904;50.076;8.660;2023-02-26T17:40:45;3.10;1.00
3778;DHT22;1904;50.076;8.660;2023-02-26T17:43:39;3.10;1.00
3778;DHT22;1904;50.076;8.660;2023-02-26T17:46:04;3.10;1.00
3778;DHT22;1904;50.076;8.660;2023-02-26T17:48:33;3.10;1.00
3778;DHT22;1904;50.076;8.660;2023-02-26T17:51:15;3.20;1.00
3778;DHT22;1904;50.076;8.660;2023-02-26T17:57:04;3.30;1.00
3778;DHT22;1904;50.076;8.660;2023-02-26T17:59:45;3.30;1.00
3778;DHT22;1904;50.076;8.660;2023-02-26T18:02:27;3.20;1.00
3778;DHT22;1904;50.076;8.660;2023-02-26T18:05:27;3.20;1.00
3778;DHT22;1904;50.076;8.660;2023-02-26T18:08:11;3.10;1.00
3778;DHT22;1904;50.076;8.660;2023-02-26T18:10:40;3.00;1.00
3778;DHT22;1904;50.076;8.660;2023-02-26T18:13:09;3.00;1.00
3778;DHT22;1904;50.076;8.660;2023-02-26T18:18:57;3.00;1.00
3778;DHT22;1904;50.076;8.660;2023-02-26T18:24:45;3.00;1.00
3778;DHT22;1904;50.076;8.660;2023-02-26T18:27:18;3.00;1.00
3778;DHT22;1904;50.076;8.660;2023-02-26T18:29:52;3.10;1.00
3778;DHT22;1904;50.076;8.660;2023-02-26T18:32:20;3.10;1.00
3778;DHT22;1904;50.076;8.660;2023-02-26T18:38:11;3.10;1.00
3778;DHT22;1904;50.076;8.660;2023-02-26T18:44:15;3.10;1.00
3778;DHT22;1904;50.076;8.660;2023-02-26T18:46:41;3.10;1.00
3778;DHT22;1904;50.076;8.660;2023-02-26T18:49:26;3.20;1.00
3778;DHT22;1904;50.076;8.660;2023-02-26T18:58:21;3.20;1.00
3778;DHT22;1904;50.076;8.660;2023-02-26T19:00:47;3.20;1.00
3778;DHT22;1904;50.076;8.660;2023-02-26T19:06:39;3.30;1.00
3778;DHT22;1904;50.076;8.660;2023-02-26T19:09:09;3.30;1.00
3778;DHT22;1904;50.076;8.660;2023-02-26T19:11:39;3.30;1.00
3778;DHT22;1904;50.076;8.660;2023-02-26T19:14:09;3.30;1.00
3778;DHT22;1904;50.076;8.660;2023-02-26T19:16:36;3.30;1.00
3778;DHT22;1904;50.076;8.660;2023-02-26T19:19:05;3.30;1.00
3778;DHT22;1904;50.076;8.660;2023-02-26T19:21:57;3.30;1.00
3778;DHT22;1904;50.076;8.660;2023-02-26T19:24:23;3.30;1.00
3778;DHT22;1904;50.076;8.660;2023-02-26T19:26:49;3.30;1.00
3778;DHT22;1904;50.076;8.660;2023-02-26T19:29:17;3.30;1.00
3778;DHT22;1904;50.076;8.660;2023-02-26T19:31:45;3.20;1.00
3778;DHT22;1904;50.076;8.660;2023-02-26T19:34:11;3.30;1.00
3778;DHT22;1904;50.076;8.660;2023-02-26T19:36:37;3.20;1.00
3778;DHT22;1904;50.076;8.660;2023-02-26T19:39:05;3.20;1.00
3778;DHT22;1904;50.076;8.660;2023-02-26T19:41:31;3.20;1.00
3778;DHT22;1904;50.076;8.660;2023-02-26T19:43:57;3.20;1.00
3778;DHT22;1904;50.076;8.660;2023-02-26T19:46:23;3.30;1.00
3778;DHT22;1904;50.076;8.660;2023-02-26T19:48:51;3.20;1.00
3778;DHT22;1904;50.076;8.660;2023-02-26T19:54:51;3.20;1.00
3778;DHT22;1904;50.076;8.660;2023-02-26T20:04:01;3.00;1.00
3778;DHT22;1904;50.076;8.660;2023-02-26T20:06:27;2.90;1.00
3778;DHT22;1904;50.076;8.660;2023-02-26T20:09:09;2.70;1.00
3778;DHT22;1904;50.076;8.660;2023-02-26T20:11:40;2.60;1.00
3778;DHT22;1904;50.076;8.660;2023-02-26T20:14:06;2.60;1.00
3778;DHT22;1904;50.076;8.660;2023-02-26T20:16:33;2.60;1.00
3778;DHT22;1904;50.076;8.660;2023-02-26T20:18:59;2.30;1.00
3778;DHT22;1904;50.076;8.660;2023-02-26T20:21:27;2.20;1.00
3778;DHT22;1904;50.076;8.660;2023-02-26T20:23:57;2.10;1.00
3778;DHT22;1904;50.076;8.660;2023-02-26T20:26:33;2.00;1.00
3778;DHT22;1904;50.076;8.660;2023-02-26T20:29:00;2.00;1.00
3778;DHT22;1904;50.076;8.660;2023-02-26T20:31:27;1.80;1.00
3778;DHT22;1904;50.076;8.660;2023-02-26T20:33:55;1.80;1.00
3778;DHT22;1904;50.076;8.660;2023-02-26T20:36:21;1.80;1.00
3778;DHT22;1904;50.076;8.660;2023-02-26T20:38:51;1.80;1.00
3778;DHT22;1904;50.076;8.660;2023-02-26T20:41:27;1.70;1.00
3778;DHT22;1904;50.076;8.660;2023-02-26T20:43:57;1.60;1.00
3778;DHT22;1904;50.076;8.660;2023-02-26T20:46:23;1.60;1.00
3778;DHT22;1904;50.076;8.660;2023-02-26T20:48:49;1.60;1.00
3778;DHT22;1904;50.076;8.660;2023-02-26T20:51:28;1.50;1.00
3778;DHT22;1904;50.076;8.660;2023-02-26T20:53:54;1.40;1.00
3778;DHT22;1904;50.076;8.660;2023-02-26T21:03:03;1.20;1.00
3778;DHT22;1904;50.076;8.660;2023-02-26T21:05:29;1.20;1.00
3778;DHT22;1904;50.076;8.660;2023-02-26T21:07:55;1.20;1.00
3778;DHT22;1904;50.076;8.660;2023-02-26T21:10:21;1.10;1.00
3778;DHT22;1904;50.076;8.660;2023-02-26T21:12:47;1.20;1.00
3778;DHT22;1904;50.076;8.660;2023-02-26T21:15:16;1.20;1.00
3778;DHT22;1904;50.076;8.660;2023-02-26T21:17:45;1.10;1.00
3778;DHT22;1904;50.076;8.660;2023-02-26T21:20:16;1.10;1.00
3778;DHT22;1904;50.076;8.660;2023-02-26T21:36:10;0.80;1.00
3778;DHT22;1904;50.076;8.660;2023-02-26T21:39:03;0.80;1.00
3778;DHT22;1904;50.076;8.660;2023-02-26T21:48:13;0.70;1.00
3778;DHT22;1904;50.076;8.660;2023-02-26T21:50:45;0.70;1.00
3778;DHT22;1904;50.076;8.660;2023-02-26T21:53:12;0.70;1.00
3778;DHT22;1904;50.076;8.660;2023-02-26T21:55:39;0.70;1.00
3778;DHT22;1904;50.076;8.660;2023-02-26T21:58:21;0.70;1.00
3778;DHT22;1904;50.076;8.660;2023-02-26T22:00:47;0.70;1.00
3778;DHT22;1904;50.076;8.660;2023-02-26T22:03:13;0.60;1.00
3778;DHT22;1904;50.076;8.660;2023-02-26T22:05:39;0.50;1.00
3778;DHT22;1904;50.076;8.660;2023-02-26T22:08:09;0.60;1.00
3778;DHT22;1904;50.076;8.660;2023-02-26T22:10:35;0.60;1.00
3778;DHT22;1904;50.076;8.660;2023-02-26T22:13:01;0.50;1.00
3778;DHT22;1904;50.076;8.660;2023-02-26T22:15:27;0.50;1.00
3778;DHT22;1904;50.076;8.660;2023-02-26T22:18:03;0.50;1.00
3778;DHT22;1904;50.076;8.660;2023-02-26T22:20:29;0.50;1.00
3778;DHT22;1904;50.076;8.660;2023-02-26T22:23:15;0.50;1.00
3778;DHT22;1904;50.076;8.660;2023-02-26T22:29:27;0.40;1.00
3778;DHT22;1904;50.076;8.660;2023-02-26T22:32:04;0.30;1.00
3778;DHT22;1904;50.076;8.660;2023-02-26T22:37:51;0.30;1.00
3778;DHT22;1904;50.076;8.660;2023-02-26T22:40:17;0.30;1.00
3778;DHT22;1904;50.076;8.660;2023-02-26T22:42:43;0.40;1.00
3778;DHT22;1904;50.076;8.660;2023-02-26T22:45:21;0.40;1.00
3778;DHT22;1904;50.076;8.660;2023-02-26T22:47:47;0.40;1.00
3778;DHT22;1904;50.076;8.660;2023-02-26T22:50:14;0.30;1.00
3778;DHT22;1904;50.076;8.660;2023-02-26T22:53:09;0.40;1.00
3778;DHT22;1904;50.076;8.660;2023-02-26T22:59:21;0.30;1.00
3778;DHT22;1904;50.076;8.660;2023-02-26T23:05:09;0.30;1.00
3778;DHT22;1904;50.076;8.660;2023-02-26T23:10:58;0.30;1.00
3778;DHT22;1904;50.076;8.660;2023-02-26T23:13:39;0.20;1.00
3778;DHT22;1904;50.076;8.660;2023-02-26T23:16:33;0.20;1.00
3778;DHT22;1904;50.076;8.660;2023-02-26T23:22:57;0.20;1.00
3778;DHT22;1904;50.076;8.660;2023-02-26T23:25:27;0.20;1.00
3778;DHT22;1904;50.076;8.660;2023-02-26T23:28:27;0.20;1.00
3778;DHT22;1904;50.076;8.660;2023-02-26T23:37:51;0.00;1.00
3778;DHT22;1904;50.076;8.660;2023-02-26T23:40:17;0.00;1.00
3778;DHT22;1904;50.076;8.660;2023-02-26T23:42:43;0.00;1.00
3778;DHT22;1904;50.076;8.660;2023-02-26T23:45:10;0.00;1.00
3778;DHT22;1904;50.076;8.660;2023-02-26T23:47:45;0.00;1.00
3778;DHT22;1904;50.076;8.660;2023-02-26T23:50:11;0.00;1.00
3778;DHT22;1904;50.076;8.660;2023-02-26T23:52:51;0.00;1.00
3778;DHT22;1904;50.076;8.660;2023-02-26T23:55:51;0.00;1.00
